createdAt,value
2023-04-08T00:03:50.410Z,102151.34
2023-04-08T00:08:55.512Z,102156.41
2023-04-08T00:13:59.270Z,102157.19
2023-04-08T00:19:03.054Z,102160.69
2023-04-08T00:24:08.316Z,102153.16
2023-04-08T00:29:12.048Z,102158.31
2023-04-08T00:34:16.401Z,102162.81
2023-04-08T00:39:21.557Z,102162.81
2023-04-08T00:44:25.375Z,102165.47
2023-04-08T00:49:29.213Z,102171.66
2023-04-08T00:54:34.381Z,102170.97
2023-04-08T00:59:38.709Z,102176.94
2023-04-08T01:04:53.920Z,102172.66
2023-04-08T01:10:03.975Z,102175.38
2023-04-08T01:15:09.904Z,102184.00
2023-04-08T01:20:16.673Z,102181.41
2023-04-08T01:25:24.762Z,102186.56
2023-04-08T01:30:31.503Z,102181.88
2023-04-08T01:35:36.646Z,102185.47
2023-04-08T01:40:42.124Z,102188.25
2023-04-08T01:45:49.110Z,102183.88
2023-04-08T01:50:54.059Z,102194.53
2023-04-08T01:56:02.706Z,102192.63
2023-04-08T02:01:12.461Z,102191.50
2023-04-08T02:06:16.391Z,102197.69
2023-04-08T02:11:21.288Z,102196.78
2023-04-08T02:16:34.900Z,102191.72
2023-04-08T02:21:44.212Z,102189.47
2023-04-08T02:26:50.545Z,102193.63
2023-04-08T02:31:56.600Z,102194.97
2023-04-08T02:37:00.569Z,102196.00
2023-04-08T02:42:05.627Z,102195.19
2023-04-08T02:47:10.741Z,102199.59
2023-04-08T02:52:14.505Z,102196.22
2023-04-08T02:57:18.537Z,102199.00
2023-04-08T03:02:23.662Z,102204.28
2023-04-08T03:07:27.493Z,102203.19
2023-04-08T03:12:31.762Z,102211.69
2023-04-08T03:17:36.787Z,102212.81
2023-04-08T03:22:40.507Z,102214.72
2023-04-08T03:27:44.175Z,102210.13
2023-04-08T03:32:49.453Z,102208.69
2023-04-08T03:37:54.552Z,102213.94
2023-04-08T03:42:58.324Z,102210.69
2023-04-08T03:48:03.401Z,102219.31
2023-04-08T03:53:07.133Z,102222.69
2023-04-08T03:58:10.875Z,102216.72
2023-04-08T04:03:16.154Z,102220.22
2023-04-08T04:08:19.957Z,102219.75
2023-04-08T04:13:23.644Z,102225.94
2023-04-08T04:18:28.730Z,102226.94
2023-04-08T04:23:32.557Z,102222.56
2023-04-08T04:28:36.279Z,102224.25
2023-04-08T04:33:41.323Z,102232.53
2023-04-08T04:38:45.481Z,102240.53
2023-04-08T04:43:49.181Z,102244.44
2023-04-08T04:48:54.228Z,102248.94
2023-04-08T04:53:57.972Z,102261.16
2023-04-08T04:59:01.648Z,102269.56
2023-04-08T05:04:06.754Z,102262.94
2023-04-08T05:09:10.465Z,102257.78
2023-04-08T05:14:14.268Z,102269.78
2023-04-08T05:19:19.332Z,102274.47
2023-04-08T05:24:23.075Z,102284.13
2023-04-08T05:29:27.911Z,102289.72
2023-04-08T05:34:33.895Z,102296.72
2023-04-08T05:39:37.732Z,102290.63
2023-04-08T05:44:43.903Z,102289.94
2023-04-08T05:49:50.216Z,102296.12
2023-04-08T05:54:55.002Z,102293.53
2023-04-08T05:59:58.920Z,102298.63
2023-04-08T06:05:04.819Z,102302.31
2023-04-08T06:10:09.917Z,102312.16
2023-04-08T06:15:13.824Z,102317.59
2023-04-08T06:20:18.972Z,102328.13
2023-04-08T06:25:23.083Z,102325.66
2023-04-08T06:30:26.834Z,102323.75
2023-04-08T06:35:32.599Z,102336.44
2023-04-08T06:40:36.524Z,102339.13
2023-04-08T06:45:40.331Z,102347.88
2023-04-08T06:50:45.547Z,102346.22
2023-04-08T06:55:49.269Z,102352.28
2023-04-08T07:00:55.356Z,102355.75
2023-04-08T07:06:00.425Z,102368.06
2023-04-08T07:11:04.248Z,102370.22
2023-04-08T07:16:08.295Z,102369.97
2023-04-08T07:21:13.353Z,102380.97
2023-04-08T07:26:17.144Z,102381.19
2023-04-08T07:31:21.031Z,102383.00
2023-04-08T07:36:26.506Z,102388.25
2023-04-08T07:41:30.268Z,102393.00
2023-04-08T07:46:38.232Z,102393.41
2023-04-08T07:51:43.384Z,102406.59
2023-04-08T07:56:47.183Z,102409.81
2023-04-08T08:01:51.322Z,102408.81
2023-04-08T08:06:56.566Z,102414.28
2023-04-08T08:12:00.369Z,102419.59
2023-04-08T08:17:04.987Z,102422.66
2023-04-08T08:22:10.026Z,102430.47
2023-04-08T08:27:13.870Z,102431.50
2023-04-08T08:32:17.781Z,102442.03
2023-04-08T08:37:22.857Z,102439.53
2023-04-08T08:42:27.502Z,102450.28
2023-04-08T08:47:32.390Z,102445.72
2023-04-08T08:52:37.622Z,102452.56
2023-04-08T08:57:41.433Z,102456.41
2023-04-08T09:02:45.776Z,102465.06
2023-04-08T09:07:51.100Z,102473.16
2023-04-08T09:12:56.733Z,102474.91
2023-04-08T09:18:00.541Z,102469.28
2023-04-08T09:23:05.710Z,102470.63
2023-04-08T09:28:21.090Z,102474.22
2023-04-08T09:33:31.817Z,102482.69
2023-04-08T09:38:37.037Z,102489.75
2023-04-08T09:43:44.075Z,102493.34
2023-04-08T09:48:54.566Z,102495.09
2023-04-08T09:54:03.747Z,102493.69
2023-04-08T09:59:12.999Z,102505.81
2023-04-08T10:04:21.012Z,102498.50
2023-04-08T10:09:28.424Z,102494.37
2023-04-08T10:14:32.645Z,102491.41
2023-04-08T10:19:41.697Z,102484.81
2023-04-08T10:25:23.789Z,102494.91
2023-04-08T10:30:43.896Z,102484.94
2023-04-08T10:35:50.133Z,102489.50
2023-04-08T10:40:55.790Z,102489.88
2023-04-08T10:45:59.739Z,102487.34
2023-04-08T10:51:05.156Z,102475.72
2023-04-08T10:56:13.318Z,102462.31
2023-04-08T11:01:17.489Z,102462.38
2023-04-08T11:06:22.108Z,102465.50
2023-04-08T11:11:29.511Z,102452.66
2023-04-08T11:16:33.759Z,102461.66
2023-04-08T11:21:38.690Z,102462.69
2023-04-08T11:26:44.342Z,102456.09
2023-04-08T11:31:49.619Z,102443.81
2023-04-08T11:36:53.746Z,102438.44
2023-04-08T11:41:58.908Z,102438.81
2023-04-08T11:47:03.069Z,102435.53
2023-04-08T11:52:07.548Z,102433.97
2023-04-08T11:57:12.892Z,102429.91
2023-04-08T12:02:17.205Z,102431.00
2023-04-08T12:07:21.501Z,102423.75
2023-04-08T12:12:26.693Z,102426.81
2023-04-08T12:17:30.730Z,102426.34
2023-04-08T12:22:34.516Z,102419.38
2023-04-08T12:27:39.649Z,102421.72
2023-04-08T12:32:45.877Z,102418.75
2023-04-08T12:37:49.731Z,102426.84
2023-04-08T12:42:54.832Z,102432.47
2023-04-08T12:47:58.583Z,102426.66
2023-04-08T12:53:02.372Z,102422.59
2023-04-08T12:58:07.499Z,102409.53
2023-04-08T13:03:11.262Z,102404.75
2023-04-08T13:08:16.078Z,102401.44
2023-04-08T13:13:21.188Z,102406.84
2023-04-08T13:18:25.077Z,102401.72
2023-04-08T13:23:28.819Z,102400.06
2023-04-08T13:28:38.672Z,102404.62
2023-04-08T13:33:47.527Z,102392.50
2023-04-08T13:38:52.068Z,102396.13
2023-04-08T13:43:57.619Z,102389.19
2023-04-08T13:49:01.443Z,102380.44
2023-04-08T13:54:05.222Z,102385.78
2023-04-08T13:59:10.717Z,102376.00
2023-04-08T14:04:14.489Z,102382.19
2023-04-08T14:09:18.598Z,102372.37
2023-04-08T14:14:23.727Z,102367.06
2023-04-08T14:19:27.582Z,102361.75
2023-04-08T14:24:31.292Z,102355.53
2023-04-08T14:29:36.687Z,102359.94
2023-04-08T14:34:40.426Z,102353.34
2023-04-08T14:39:44.158Z,102366.28
2023-04-08T14:44:49.298Z,102359.84
2023-04-08T14:49:52.963Z,102365.06
2023-04-08T14:54:56.751Z,102361.00
2023-04-08T15:00:01.910Z,102354.28
2023-04-08T15:05:06.347Z,102362.22
2023-04-08T15:10:10.896Z,102352.22
2023-04-08T15:15:16.220Z,102352.44
2023-04-08T15:20:20.226Z,102347.38
2023-04-08T15:25:24.135Z,102345.53
2023-04-08T15:30:35.030Z,102347.00
2023-04-08T15:35:39.383Z,102352.03
2023-04-08T15:40:44.700Z,102346.84
2023-04-08T15:45:50.611Z,102358.94
2023-04-08T15:50:54.453Z,102351.97
2023-04-08T15:55:58.330Z,102355.09
2023-04-08T16:01:03.450Z,102349.69
2023-04-08T16:06:07.287Z,102351.91
2023-04-08T16:11:11.445Z,102354.34
2023-04-08T16:16:16.550Z,102353.00
2023-04-08T16:21:20.475Z,102346.47
2023-04-08T16:26:27.386Z,102353.62
2023-04-08T16:31:32.822Z,102351.22
2023-04-08T16:36:36.817Z,102348.69
2023-04-08T16:41:40.554Z,102353.78
2023-04-08T16:46:45.783Z,102358.06
2023-04-08T16:51:49.793Z,102364.69
2023-04-08T16:56:53.594Z,102360.84
2023-04-08T17:01:58.671Z,102360.19
2023-04-08T17:07:03.357Z,102357.59
2023-04-08T17:12:07.121Z,102370.91
2023-04-08T17:17:12.211Z,102364.66
2023-04-08T17:22:16.395Z,102378.31
2023-04-08T17:27:20.197Z,102365.13
2023-04-08T17:32:25.772Z,102360.00
2023-04-08T17:37:29.487Z,102361.87
2023-04-08T17:42:33.178Z,102362.59
2023-04-08T17:47:38.258Z,102358.22
2023-04-08T17:52:43.965Z,102363.19
2023-04-08T17:57:49.674Z,102358.31
2023-04-08T18:02:54.830Z,102359.50
2023-04-08T18:07:59.328Z,102362.34
2023-04-08T18:18:11.106Z,102375.59
2023-04-08T18:23:14.864Z,102381.34
2023-04-08T18:28:18.604Z,102383.81
2023-04-08T18:33:23.640Z,102392.19
2023-04-08T18:38:27.408Z,102380.91
2023-04-08T18:43:31.170Z,102400.47
2023-04-08T18:48:36.276Z,102404.09
2023-04-08T18:53:40.065Z,102413.63
2023-04-08T18:58:44.553Z,102419.72
2023-04-08T19:03:50.026Z,102418.94
2023-04-08T19:08:54.006Z,102414.00
2023-04-08T19:13:57.918Z,102410.50
2023-04-08T19:19:03.229Z,102415.12
2023-04-08T19:24:07.109Z,102421.19
2023-04-08T19:29:11.935Z,102430.28
2023-04-08T19:34:17.019Z,102434.06
2023-04-08T19:39:21.029Z,102432.38
2023-04-08T19:44:24.689Z,102430.06
2023-04-08T19:49:29.719Z,102424.84
2023-04-08T19:54:33.467Z,102433.81
2023-04-08T19:59:37.305Z,102434.25
2023-04-08T20:04:42.561Z,102424.91
2023-04-08T20:09:46.458Z,102433.34
2023-04-08T20:14:50.257Z,102437.06
2023-04-08T20:19:55.671Z,102432.69
2023-04-08T20:25:00.229Z,102437.41
2023-04-08T20:30:04.300Z,102442.91
2023-04-08T20:35:09.812Z,102448.75
2023-04-08T20:40:14.687Z,102455.28
2023-04-08T20:45:19.259Z,102465.19
2023-04-08T20:50:24.660Z,102464.69
2023-04-08T20:55:28.417Z,102457.91
2023-04-08T21:00:32.253Z,102462.00
2023-04-08T21:05:39.070Z,102466.00
2023-04-08T21:10:43.071Z,102469.97
2023-04-08T21:15:46.965Z,102459.94
2023-04-08T21:20:52.040Z,102468.09
2023-04-08T21:25:56.004Z,102468.09
2023-04-08T21:31:08.699Z,102467.37
2023-04-08T21:36:14.029Z,102461.03
2023-04-08T21:41:18.183Z,102462.00
2023-04-08T21:46:22.036Z,102460.41
2023-04-08T21:51:27.553Z,102457.72
2023-04-08T21:56:31.304Z,102459.31
2023-04-08T22:01:35.116Z,102457.44
2023-04-08T22:06:41.038Z,102462.19
2023-04-08T22:11:44.751Z,102460.44
2023-04-08T22:16:48.477Z,102463.50
2023-04-08T22:21:53.717Z,102468.91
2023-04-08T22:26:57.524Z,102462.78
2023-04-08T22:32:01.414Z,102467.91
2023-04-08T22:37:06.598Z,102469.19
2023-04-08T22:42:10.398Z,102456.41
2023-04-08T22:47:14.156Z,102457.41
2023-04-08T22:52:19.236Z,102452.03
2023-04-08T22:57:23.042Z,102455.16
2023-04-08T23:02:26.938Z,102450.03
2023-04-08T23:07:32.060Z,102455.22
2023-04-08T23:12:35.914Z,102453.44
2023-04-08T23:17:39.661Z,102450.06
2023-04-08T23:22:44.747Z,102451.06
2023-04-08T23:27:48.484Z,102457.44
2023-04-08T23:32:52.269Z,102455.62
2023-04-08T23:37:57.541Z,102449.44
2023-04-08T23:43:01.248Z,102447.28
2023-04-08T23:48:07.806Z,102455.94
2023-04-08T23:53:14.494Z,102454.50
2023-04-08T23:58:18.125Z,102453.31
